createdAt,value
2019-05-21T00:01:23.440Z,6.83
2019-05-21T00:03:51.856Z,7.07
2019-05-21T00:06:20.252Z,7.50
2019-05-21T00:08:48.660Z,7.20
2019-05-21T00:11:17.064Z,6.85
2019-05-21T00:13:45.486Z,7.23
2019-05-21T00:16:13.884Z,7.63
2019-05-21T00:18:42.652Z,7.43
2019-05-21T00:21:11.063Z,6.90
2019-05-21T00:23:39.454Z,6.87
2019-05-21T00:26:07.955Z,5.87
2019-05-21T00:28:38.034Z,7.40
2019-05-21T00:31:43.262Z,8.43
2019-05-21T00:34:48.682Z,8.40
2019-05-21T00:37:53.492Z,7.97
2019-05-21T00:40:58.148Z,12.30
2019-05-21T00:43:44.611Z,12.87
2019-05-21T00:46:13.027Z,12.10
2019-05-21T00:48:41.567Z,13.40
2019-05-21T00:51:09.989Z,14.77
2019-05-21T00:53:38.409Z,14.90
2019-05-21T00:56:06.809Z,12.30
2019-05-21T00:58:35.218Z,12.93
2019-05-21T01:01:03.637Z,14.87
2019-05-21T01:03:32.167Z,14.53
2019-05-21T01:06:00.599Z,13.30
2019-05-21T01:08:28.965Z,15.83
2019-05-21T01:10:57.371Z,13.83
2019-05-21T01:13:25.779Z,14.67
2019-05-21T01:15:54.494Z,14.43
2019-05-21T01:18:22.914Z,14.43
2019-05-21T01:20:51.432Z,13.97
2019-05-21T01:23:19.852Z,14.17
2019-05-21T01:25:48.255Z,14.20
2019-05-21T01:28:16.692Z,14.77
2019-05-21T01:30:45.088Z,15.28
2019-05-21T01:33:13.483Z,15.97
2019-05-21T01:35:42.229Z,16.70
2019-05-21T01:38:10.629Z,13.80
2019-05-21T01:40:39.304Z,14.27
2019-05-21T01:43:07.720Z,13.73
2019-05-21T01:45:36.129Z,16.33
2019-05-21T01:48:04.541Z,15.47
2019-05-21T01:50:32.943Z,14.37
2019-05-21T01:53:01.346Z,14.57
2019-05-21T01:55:29.818Z,15.73
2019-05-21T01:57:58.245Z,15.50
2019-05-21T02:00:26.625Z,13.67
2019-05-21T02:02:55.056Z,14.20
2019-05-21T02:05:32.562Z,14.60
2019-05-21T02:07:53.635Z,13.67
2019-05-21T02:10:22.061Z,14.33
2019-05-21T02:12:50.470Z,15.57
2019-05-21T02:15:18.957Z,16.63
2019-05-21T02:17:47.434Z,14.77
2019-05-21T02:20:15.852Z,15.33
2019-05-21T02:22:44.247Z,15.27
2019-05-21T02:25:12.828Z,16.03
2019-05-21T02:27:41.380Z,16.57
2019-05-21T02:30:10.573Z,16.67
2019-05-21T02:32:38.970Z,15.90
2019-05-21T02:35:07.961Z,16.20
2019-05-21T02:37:36.476Z,15.00
2019-05-21T02:40:07.312Z,14.30
2019-05-21T02:42:36.026Z,14.40
2019-05-21T02:45:06.692Z,15.47
2019-05-21T02:47:35.101Z,14.90
2019-05-21T02:50:04.746Z,15.33
2019-05-21T02:52:33.153Z,16.13
2019-05-21T02:55:01.701Z,18.10
2019-05-21T02:57:42.253Z,17.43
2019-05-21T03:00:30.983Z,16.90
2019-05-21T03:03:01.107Z,17.40
2019-05-21T03:05:29.737Z,15.93
2019-05-21T03:07:58.228Z,15.53
2019-05-21T03:10:28.270Z,14.90
2019-05-21T03:12:56.665Z,15.20
2019-05-21T03:15:25.082Z,15.00
2019-05-21T03:17:53.483Z,13.60
2019-05-21T03:20:22.676Z,12.67
2019-05-21T03:22:51.070Z,13.57
2019-05-21T03:25:19.483Z,12.00
2019-05-21T03:27:47.887Z,10.50
2019-05-21T03:30:16.576Z,11.97
2019-05-21T03:32:45.007Z,10.63
2019-05-21T03:35:13.569Z,10.37
2019-05-21T03:37:41.998Z,9.53
2019-05-21T03:40:10.709Z,11.70
2019-05-21T03:42:39.106Z,10.93
2019-05-21T03:45:08.514Z,10.77
2019-05-21T03:47:37.026Z,10.53
2019-05-21T03:50:07.114Z,10.33
2019-05-21T03:52:35.573Z,9.93
2019-05-21T03:55:04.627Z,11.57
2019-05-21T03:57:33.046Z,11.23
2019-05-21T04:00:01.439Z,12.60
2019-05-21T04:02:29.858Z,11.87
2019-05-21T04:04:58.252Z,10.97
2019-05-21T04:07:26.681Z,12.00
2019-05-21T04:09:55.084Z,10.80
2019-05-21T04:12:23.510Z,11.47
2019-05-21T04:14:59.564Z,11.43
2019-05-21T04:17:34.389Z,10.30
2019-05-21T04:19:59.745Z,10.70
2019-05-21T04:22:28.177Z,10.50
2019-05-21T04:24:56.577Z,10.90
2019-05-21T04:27:24.978Z,12.40
2019-05-21T04:29:53.393Z,12.07
2019-05-21T04:32:21.816Z,12.23
2019-05-21T04:34:50.210Z,12.63
2019-05-21T04:37:18.641Z,10.50
2019-05-21T04:39:47.082Z,10.57
2019-05-21T04:42:15.468Z,10.13
2019-05-21T04:44:43.869Z,10.80
2019-05-21T04:47:12.290Z,12.53
2019-05-21T04:49:40.725Z,11.77
2019-05-21T04:52:09.114Z,10.93
2019-05-21T04:54:37.579Z,11.63
2019-05-21T04:57:06.019Z,11.40
2019-05-21T04:59:34.419Z,10.87
2019-05-21T05:02:02.836Z,13.13
2019-05-21T05:04:31.261Z,11.10
2019-05-21T05:06:59.687Z,13.50
2019-05-21T05:09:28.089Z,10.60
2019-05-21T05:11:56.498Z,12.67
2019-05-21T05:14:24.959Z,13.03
2019-05-21T05:16:53.331Z,12.80
2019-05-21T05:19:21.754Z,13.23
2019-05-21T05:21:50.175Z,13.30
2019-05-21T05:24:18.590Z,13.00
2019-05-21T05:26:46.978Z,13.67
2019-05-21T05:29:15.396Z,13.33
2019-05-21T05:31:43.804Z,14.27
2019-05-21T05:34:12.228Z,15.30
2019-05-21T05:36:40.640Z,14.27
2019-05-21T05:39:09.450Z,14.70
2019-05-21T05:41:37.855Z,16.37
2019-05-21T05:44:06.262Z,15.90
2019-05-21T05:46:34.669Z,13.77
2019-05-21T05:49:10.483Z,14.67
2019-05-21T05:51:38.883Z,15.20
2019-05-21T05:54:07.882Z,15.40
2019-05-21T05:56:37.043Z,14.23
2019-05-21T05:59:05.543Z,15.03
2019-05-21T06:01:34.635Z,14.35
2019-05-21T06:04:03.025Z,14.87
2019-05-21T06:06:31.453Z,14.73
2019-05-21T06:08:59.876Z,13.73
2019-05-21T06:11:28.273Z,13.57
2019-05-21T06:13:56.701Z,12.53
2019-05-21T06:16:25.106Z,13.47
2019-05-21T06:18:53.530Z,14.00
2019-05-21T06:21:21.929Z,12.80
2019-05-21T06:23:50.357Z,12.27
2019-05-21T06:26:18.764Z,12.63
2019-05-21T06:28:47.179Z,13.07
2019-05-21T06:31:15.580Z,13.30
2019-05-21T06:33:43.985Z,14.57
2019-05-21T06:36:13.351Z,14.45
2019-05-21T06:38:41.749Z,13.53
2019-05-21T06:41:10.202Z,13.43
2019-05-21T06:43:38.595Z,14.27
2019-05-21T06:46:07.002Z,12.43
2019-05-21T06:48:35.410Z,13.80
2019-05-21T06:51:03.953Z,13.60
2019-05-21T06:53:32.344Z,13.53
2019-05-21T06:56:00.760Z,13.60
2019-05-21T06:58:29.185Z,13.57
2019-05-21T07:00:57.601Z,13.70
2019-05-21T07:03:26.118Z,13.73
2019-05-21T07:05:58.687Z,12.43
2019-05-21T07:08:34.211Z,12.00
2019-05-21T07:10:54.831Z,11.40
2019-05-21T07:13:23.220Z,12.87
2019-05-21T07:15:51.646Z,12.17
2019-05-21T07:18:20.068Z,11.97
2019-05-21T07:20:48.472Z,12.40
2019-05-21T07:23:16.871Z,11.67
2019-05-21T07:25:45.361Z,11.87
2019-05-21T07:28:13.769Z,10.67
2019-05-21T07:30:42.170Z,10.07
2019-05-21T07:33:10.938Z,11.20
2019-05-21T07:35:39.485Z,11.27
2019-05-21T07:38:07.893Z,11.37
2019-05-21T07:40:36.297Z,11.20
2019-05-21T07:43:04.718Z,12.30
2019-05-21T07:45:33.111Z,11.80
2019-05-21T07:48:01.538Z,12.53
2019-05-21T07:50:29.937Z,12.10
2019-05-21T07:52:58.362Z,13.90
2019-05-21T07:55:26.753Z,13.33
2019-05-21T07:57:55.173Z,11.30
2019-05-21T08:00:24.012Z,12.83
2019-05-21T08:02:52.439Z,14.98
2019-05-21T08:05:20.835Z,13.80
2019-05-21T08:07:49.248Z,13.57
2019-05-21T08:10:17.725Z,12.90
2019-05-21T08:12:46.410Z,13.17
2019-05-21T08:15:15.546Z,15.20
2019-05-21T08:17:43.963Z,12.97
2019-05-21T08:20:13.525Z,13.27
2019-05-21T08:22:41.942Z,13.00
2019-05-21T08:25:14.411Z,13.80
2019-05-21T08:27:41.222Z,12.80
2019-05-21T08:30:10.470Z,14.27
2019-05-21T08:32:38.876Z,13.63
2019-05-21T08:35:08.651Z,13.07
2019-05-21T08:37:37.080Z,14.43
2019-05-21T08:40:07.110Z,16.77
2019-05-21T08:42:35.542Z,16.27
2019-05-21T08:45:08.459Z,15.27
2019-05-21T08:47:37.046Z,16.63
2019-05-21T08:50:08.688Z,17.03
2019-05-21T08:52:37.356Z,16.97
2019-05-21T08:55:07.474Z,17.87
2019-05-21T08:57:35.972Z,16.33
2019-05-21T09:00:10.395Z,16.73
2019-05-21T09:02:38.819Z,18.60
2019-05-21T09:05:07.754Z,18.63
2019-05-21T09:07:36.365Z,18.67
2019-05-21T09:10:09.481Z,17.70
2019-05-21T09:12:37.905Z,18.03
2019-05-21T09:15:08.053Z,17.60
2019-05-21T09:17:36.800Z,20.17
2019-05-21T09:20:11.010Z,20.10
2019-05-21T09:22:39.507Z,19.33
2019-05-21T09:25:09.194Z,20.37
2019-05-21T09:27:38.379Z,21.73
2019-05-21T09:30:12.548Z,20.93
2019-05-21T09:32:40.953Z,23.63
2019-05-21T09:35:10.207Z,23.63
2019-05-21T09:37:38.780Z,21.23
2019-05-21T09:40:08.394Z,22.27
2019-05-21T09:42:37.059Z,22.00
2019-05-21T09:45:07.399Z,20.07
2019-05-21T09:47:35.982Z,21.40
2019-05-21T09:50:07.683Z,23.13
2019-05-21T09:52:36.172Z,21.07
2019-05-21T09:55:05.723Z,21.33
2019-05-21T09:57:52.471Z,21.75
2019-05-21T10:00:31.853Z,21.17
2019-05-21T10:03:00.991Z,19.43
2019-05-21T10:05:29.475Z,20.93
2019-05-21T10:07:57.878Z,19.20
2019-05-21T10:10:26.433Z,19.63
2019-05-21T10:12:54.841Z,18.50
2019-05-21T10:15:23.271Z,17.77
2019-05-21T10:17:51.676Z,21.42
2019-05-21T10:20:20.093Z,19.37
2019-05-21T10:22:48.513Z,19.20
2019-05-21T10:25:16.913Z,18.23
2019-05-21T10:27:45.317Z,21.07
2019-05-21T10:30:14.180Z,17.57
2019-05-21T10:32:42.568Z,16.87
2019-05-21T10:35:11.326Z,18.77
2019-05-21T10:37:53.948Z,19.17
2019-05-21T10:40:10.266Z,18.63
2019-05-21T10:42:38.618Z,18.37
2019-05-21T10:45:07.260Z,20.10
2019-05-21T10:47:35.691Z,20.23
2019-05-21T10:50:07.057Z,19.80
2019-05-21T10:52:35.484Z,20.17
2019-05-21T10:55:06.062Z,19.93
2019-05-21T10:57:34.498Z,18.73
2019-05-21T11:00:05.522Z,20.17
2019-05-21T11:02:50.670Z,21.03
2019-05-21T11:05:28.794Z,20.00
2019-05-21T11:07:56.886Z,19.60
2019-05-21T11:10:25.303Z,20.57
2019-05-21T11:12:53.711Z,22.40
2019-05-21T11:15:22.328Z,20.47
2019-05-21T11:18:09.237Z,21.53
2019-05-21T11:20:21.001Z,19.80
2019-05-21T11:22:49.675Z,19.27
2019-05-21T11:25:18.080Z,19.93
2019-05-21T11:27:46.777Z,20.80
2019-05-21T11:30:15.787Z,19.57
2019-05-21T11:32:47.680Z,19.93
2019-05-21T11:35:14.570Z,20.13
2019-05-21T11:37:42.991Z,19.57
2019-05-21T11:40:12.023Z,20.40
2019-05-21T11:42:40.518Z,20.60
2019-05-21T11:45:09.653Z,20.63
2019-05-21T11:47:38.612Z,19.20
2019-05-21T11:50:08.653Z,20.97
2019-05-21T11:52:37.091Z,19.70
2019-05-21T11:55:05.923Z,20.07
2019-05-21T11:57:34.352Z,18.53
2019-05-21T12:00:02.989Z,19.73
2019-05-21T12:02:31.411Z,19.13
2019-05-21T12:04:59.811Z,19.83
2019-05-21T12:07:28.231Z,18.10
2019-05-21T12:09:56.640Z,18.83
2019-05-21T12:12:25.048Z,19.10
2019-05-21T12:14:53.451Z,17.80
2019-05-21T12:17:21.867Z,18.43
2019-05-21T12:19:50.278Z,18.03
2019-05-21T12:22:18.715Z,18.50
2019-05-21T12:24:47.114Z,18.73
2019-05-21T12:27:15.616Z,17.23
2019-05-21T12:29:44.013Z,16.43
2019-05-21T12:32:12.408Z,17.03
2019-05-21T12:34:40.822Z,19.73
2019-05-21T12:37:09.265Z,15.40
2019-05-21T12:39:37.676Z,17.23
2019-05-21T12:42:06.178Z,18.47
2019-05-21T12:44:34.701Z,17.87
2019-05-21T12:47:03.126Z,16.13
2019-05-21T12:49:31.569Z,17.50
2019-05-21T12:51:59.971Z,15.70
2019-05-21T12:54:28.387Z,16.57
2019-05-21T12:56:56.782Z,17.37
2019-05-21T12:59:25.469Z,17.20
2019-05-21T13:01:53.951Z,15.70
2019-05-21T13:04:22.395Z,13.75
2019-05-21T13:06:50.801Z,13.73
2019-05-21T13:09:32.355Z,13.97
2019-05-21T13:11:49.542Z,13.83
2019-05-21T13:14:19.043Z,14.60
2019-05-21T13:16:47.550Z,14.20
2019-05-21T13:19:15.960Z,12.20
2019-05-21T13:21:44.409Z,13.20
2019-05-21T13:24:12.810Z,11.97
2019-05-21T13:26:41.204Z,12.60
2019-05-21T13:29:09.633Z,12.00
2019-05-21T13:31:38.090Z,11.33
2019-05-21T13:34:06.651Z,14.10
2019-05-21T13:36:35.364Z,13.63
2019-05-21T13:39:05.713Z,15.70
2019-05-21T13:41:34.115Z,14.00
2019-05-21T13:44:02.575Z,14.03
2019-05-21T13:46:30.983Z,12.37
2019-05-21T13:48:59.421Z,13.53
2019-05-21T13:51:27.822Z,14.13
2019-05-21T13:53:56.750Z,11.93
2019-05-21T13:56:25.160Z,13.37
2019-05-21T13:58:53.919Z,12.00
2019-05-21T14:01:39.320Z,11.27
2019-05-21T14:03:52.744Z,10.60
2019-05-21T14:06:21.235Z,10.63
2019-05-21T14:08:49.659Z,10.83
2019-05-21T14:11:18.069Z,10.67
2019-05-21T14:13:46.470Z,10.30
2019-05-21T14:16:14.882Z,11.87
2019-05-21T14:18:43.297Z,13.57
2019-05-21T14:21:11.720Z,11.80
2019-05-21T14:23:40.143Z,10.53
2019-05-21T14:26:08.632Z,10.77
2019-05-21T14:28:37.071Z,11.77
2019-05-21T14:31:05.572Z,12.20
2019-05-21T14:33:34.071Z,9.13
2019-05-21T14:36:02.547Z,11.70
2019-05-21T14:38:30.958Z,10.35
2019-05-21T14:40:59.362Z,9.50
2019-05-21T14:43:28.107Z,10.47
2019-05-21T14:45:56.523Z,9.70
2019-05-21T14:48:24.945Z,10.50
2019-05-21T14:50:53.590Z,9.07
2019-05-21T14:53:22.356Z,7.57
2019-05-21T14:55:50.776Z,8.10
2019-05-21T14:58:19.222Z,8.10
2019-05-21T15:00:47.665Z,7.10
2019-05-21T15:03:24.744Z,5.90
2019-05-21T15:05:46.217Z,5.70
2019-05-21T15:08:14.630Z,7.40
2019-05-21T15:10:48.380Z,6.73
2019-05-21T15:13:13.160Z,6.50
2019-05-21T15:15:41.564Z,6.20
2019-05-21T15:18:10.045Z,6.00
2019-05-21T15:20:45.863Z,5.87
2019-05-21T15:23:14.325Z,7.03
2019-05-21T15:25:42.798Z,6.10
2019-05-21T15:28:11.215Z,7.00
2019-05-21T15:30:39.615Z,6.97
2019-05-21T15:33:08.356Z,6.20
2019-05-21T15:35:36.757Z,5.60
2019-05-21T15:38:05.168Z,6.13
2019-05-21T15:40:33.558Z,6.13
2019-05-21T15:43:01.986Z,5.70
2019-05-21T15:45:30.375Z,6.50
2019-05-21T15:47:58.785Z,5.83
2019-05-21T15:50:27.179Z,5.87
2019-05-21T15:52:55.620Z,6.57
2019-05-21T15:55:24.020Z,6.63
2019-05-21T15:57:52.432Z,5.57
2019-05-21T16:00:23.736Z,6.07
2019-05-21T16:02:52.149Z,5.00
2019-05-21T16:05:20.981Z,5.47
2019-05-21T16:07:49.396Z,6.00
2019-05-21T16:10:17.950Z,5.70
2019-05-21T16:12:46.418Z,5.40
2019-05-21T16:15:15.001Z,5.40
2019-05-21T16:17:43.410Z,5.30
2019-05-21T16:20:12.342Z,5.83
2019-05-21T16:22:40.832Z,5.93
2019-05-21T16:25:09.546Z,5.27
2019-05-21T16:27:37.941Z,4.77
2019-05-21T16:30:08.192Z,4.50
2019-05-21T16:32:36.834Z,5.10
2019-05-21T16:35:08.895Z,4.60
2019-05-21T16:37:37.361Z,4.73
2019-05-21T16:40:07.502Z,4.07
2019-05-21T16:42:35.893Z,4.50
2019-05-21T16:45:08.978Z,3.80
2019-05-21T16:47:45.814Z,4.23
2019-05-21T16:50:08.881Z,4.27
2019-05-21T16:52:38.089Z,3.70
2019-05-21T16:55:07.867Z,3.83
2019-05-21T16:57:36.225Z,4.50
2019-05-21T17:00:07.740Z,3.90
2019-05-21T17:02:36.395Z,3.80
2019-05-21T17:05:06.439Z,3.77
2019-05-21T17:07:35.780Z,3.63
2019-05-21T17:10:06.519Z,3.40
2019-05-21T17:12:35.236Z,4.10
2019-05-21T17:15:05.740Z,3.70
2019-05-21T17:17:34.133Z,3.87
2019-05-21T17:20:02.890Z,2.57
2019-05-21T17:22:31.493Z,3.40
2019-05-21T17:24:59.973Z,3.77
2019-05-21T17:27:28.448Z,3.60
2019-05-21T17:29:56.870Z,3.77
2019-05-21T17:32:25.339Z,3.97
2019-05-21T17:34:53.767Z,3.17
2019-05-21T17:37:22.616Z,3.23
2019-05-21T17:39:51.057Z,3.20
2019-05-21T17:42:19.501Z,2.87
2019-05-21T17:44:47.963Z,2.80
2019-05-21T17:47:16.564Z,2.60
2019-05-21T17:49:44.949Z,2.77
2019-05-21T17:52:13.410Z,2.60
2019-05-21T17:54:55.726Z,2.53
2019-05-21T17:57:12.023Z,2.57
2019-05-21T17:59:40.512Z,18.67
2019-05-21T18:02:11.082Z,3.50
2019-05-21T18:04:39.486Z,3.03
2019-05-21T18:07:08.737Z,2.23
2019-05-21T18:09:37.800Z,2.30
2019-05-21T18:12:07.384Z,2.33
2019-05-21T18:14:36.983Z,2.40
2019-05-21T18:17:05.563Z,2.50
2019-05-21T18:19:35.398Z,3.67
2019-05-21T18:22:06.196Z,2.80
2019-05-21T18:24:34.832Z,2.27
2019-05-21T18:27:03.323Z,2.23
2019-05-21T18:29:31.805Z,2.27
2019-05-21T18:32:00.408Z,2.10
2019-05-21T18:34:29.310Z,2.17
2019-05-21T18:36:57.726Z,2.90
2019-05-21T18:39:28.027Z,2.73
2019-05-21T18:41:56.443Z,3.50
2019-05-21T18:44:24.912Z,3.00
2019-05-21T18:46:53.314Z,2.60
2019-05-21T18:49:21.705Z,2.40
2019-05-21T18:51:50.129Z,2.23
2019-05-21T18:54:18.520Z,2.33
2019-05-21T18:56:46.921Z,2.33
2019-05-21T18:59:15.338Z,2.33
2019-05-21T19:01:43.761Z,2.70
2019-05-21T19:04:12.239Z,2.50
2019-05-21T19:06:40.669Z,2.30
2019-05-21T19:09:09.498Z,2.37
2019-05-21T19:11:37.883Z,2.20
2019-05-21T19:14:07.119Z,2.40
2019-05-21T19:16:35.523Z,2.40
2019-05-21T19:19:03.990Z,2.33
2019-05-21T19:21:32.405Z,2.10
2019-05-21T19:24:00.809Z,2.47
2019-05-21T19:26:29.209Z,2.53
2019-05-21T19:28:57.945Z,2.40
2019-05-21T19:31:26.341Z,2.33
2019-05-21T19:33:54.751Z,2.57
2019-05-21T19:36:23.613Z,2.70
2019-05-21T19:38:52.016Z,2.70
2019-05-21T19:41:20.413Z,2.22
2019-05-21T19:43:48.821Z,1.80
2019-05-21T19:46:17.215Z,2.13
2019-05-21T19:48:45.638Z,1.90
2019-05-21T19:51:14.091Z,1.77
2019-05-21T19:53:42.487Z,2.37
2019-05-21T19:56:10.969Z,2.10
2019-05-21T19:58:39.366Z,2.43
2019-05-21T20:01:09.463Z,2.30
2019-05-21T20:03:38.347Z,2.60
2019-05-21T20:06:07.644Z,2.17
2019-05-21T20:08:36.397Z,1.90
2019-05-21T20:11:05.763Z,1.93
2019-05-21T20:13:34.444Z,2.10
2019-05-21T20:16:03.099Z,2.03
2019-05-21T20:18:31.669Z,2.00
2019-05-21T20:21:01.024Z,2.33
2019-05-21T20:23:29.600Z,2.47
2019-05-21T20:25:58.457Z,2.03
2019-05-21T20:28:27.296Z,2.53
2019-05-21T20:30:55.865Z,2.43
2019-05-21T20:33:24.814Z,2.53
2019-05-21T20:35:53.874Z,2.10
2019-05-21T20:38:23.599Z,5.00
2019-05-21T20:40:53.714Z,3.93
2019-05-21T20:43:23.153Z,3.13
2019-05-21T20:45:51.734Z,2.60
2019-05-21T20:48:22.204Z,2.90
2019-05-21T20:50:50.673Z,2.60
2019-05-21T20:53:19.634Z,2.77
2019-05-21T20:55:48.202Z,2.60
2019-05-21T20:58:16.669Z,2.77
2019-05-21T21:00:46.804Z,2.50
2019-05-21T21:03:15.832Z,2.40
2019-05-21T21:05:44.881Z,3.00
2019-05-21T21:08:15.109Z,2.93
2019-05-21T21:10:43.611Z,2.80
2019-05-21T21:13:13.899Z,2.60
2019-05-21T21:15:43.119Z,2.27
2019-05-21T21:18:11.871Z,2.53
2019-05-21T21:20:40.277Z,2.30
2019-05-21T21:23:08.851Z,3.23
2019-05-21T21:25:37.400Z,2.70
2019-05-21T21:28:06.259Z,3.00
2019-05-21T21:30:36.335Z,2.63
2019-05-21T21:33:05.432Z,3.10
2019-05-21T21:35:34.616Z,3.07
2019-05-21T21:38:04.949Z,2.80
2019-05-21T21:40:33.410Z,2.97
2019-05-21T21:43:02.023Z,3.50
2019-05-21T21:45:30.485Z,2.87
2019-05-21T21:47:58.876Z,2.63
2019-05-21T21:50:28.430Z,2.33
2019-05-21T21:52:56.961Z,2.87
2019-05-21T21:55:25.424Z,4.37
2019-05-21T21:57:53.840Z,3.33
2019-05-21T22:00:31.171Z,3.20
2019-05-21T22:03:02.882Z,3.03
2019-05-21T22:05:34.275Z,3.27
2019-05-21T22:08:02.671Z,3.03
2019-05-21T22:10:31.548Z,2.90
2019-05-21T22:12:59.964Z,3.00
2019-05-21T22:15:28.449Z,3.10
2019-05-21T22:17:56.918Z,2.90
2019-05-21T22:20:25.398Z,3.20
2019-05-21T22:22:54.036Z,3.40
2019-05-21T22:25:22.795Z,3.30
2019-05-21T22:27:51.384Z,2.97
2019-05-21T22:30:20.817Z,3.30
2019-05-21T22:32:49.295Z,3.57
2019-05-21T22:35:18.323Z,3.47
2019-05-21T22:37:47.309Z,2.90
2019-05-21T22:40:15.703Z,3.40
2019-05-21T22:42:44.532Z,3.80
2019-05-21T22:45:13.182Z,3.53
2019-05-21T22:47:41.584Z,3.33
2019-05-21T22:50:10.895Z,3.80
2019-05-21T22:52:39.298Z,3.50
2019-05-21T22:55:08.225Z,6.13
2019-05-21T22:57:36.709Z,4.27
2019-05-21T23:00:07.700Z,3.40
2019-05-21T23:02:38.042Z,3.80
2019-05-21T23:05:07.647Z,3.73
2019-05-21T23:07:36.120Z,3.50
2019-05-21T23:10:07.122Z,3.57
2019-05-21T23:12:35.938Z,3.90
2019-05-21T23:15:06.069Z,4.12
2019-05-21T23:17:34.645Z,4.90
2019-05-21T23:20:05.327Z,5.10
2019-05-21T23:22:33.728Z,4.67
2019-05-21T23:25:02.565Z,4.43
2019-05-21T23:27:31.624Z,4.60
2019-05-21T23:30:01.213Z,4.40
2019-05-21T23:32:29.668Z,4.93
2019-05-21T23:34:58.860Z,5.00
2019-05-21T23:37:28.684Z,5.40
2019-05-21T23:39:57.619Z,6.03
2019-05-21T23:42:29.858Z,6.17
2019-05-21T23:44:57.586Z,7.37
2019-05-21T23:47:26.845Z,6.03
2019-05-21T23:49:55.264Z,6.70
2019-05-21T23:52:25.165Z,6.13
2019-05-21T23:54:53.557Z,6.90
2019-05-21T23:57:28.416Z,6.40
2019-05-21T23:59:57.034Z,8.40
